sensor_id;sensor_type;location;lat;lon;timestamp;P1;durP1;ratioP1;P2;durP2;ratioP2
22603;SDS011;11469;49.024;8.246;2022-11-28T00:01:27;33.20;;;17.13;;
22603;SDS011;11469;49.024;8.246;2022-11-28T00:03:58;33.03;;;17.50;;
22603;SDS011;11469;49.024;8.246;2022-11-28T00:06:23;40.90;;;21.92;;
22603;SDS011;11469;49.024;8.246;2022-11-28T00:08:49;35.60;;;19.15;;
22603;SDS011;11469;49.024;8.246;2022-11-28T00:11:15;36.13;;;18.60;;
22603;SDS011;11469;49.024;8.246;2022-11-28T00:13:41;35.33;;;16.77;;
22603;SDS011;11469;49.024;8.246;2022-11-28T00:16:08;30.73;;;15.90;;
22603;SDS011;11469;49.024;8.246;2022-11-28T00:18:36;34.42;;;17.02;;
22603;SDS011;11469;49.024;8.246;2022-11-28T00:21:03;31.17;;;17.35;;
22603;SDS011;11469;49.024;8.246;2022-11-28T00:23:30;32.88;;;17.60;;
22603;SDS011;11469;49.024;8.246;2022-11-28T00:26:01;31.98;;;16.65;;
22603;SDS011;11469;49.024;8.246;2022-11-28T00:28:31;28.17;;;15.27;;
22603;SDS011;11469;49.024;8.246;2022-11-28T00:30:57;32.78;;;17.27;;
22603;SDS011;11469;49.024;8.246;2022-11-28T00:33:22;29.05;;;16.33;;
22603;SDS011;11469;49.024;8.246;2022-11-28T00:35:48;31.67;;;17.10;;
22603;SDS011;11469;49.024;8.246;2022-11-28T00:38:13;34.97;;;17.38;;
22603;SDS011;11469;49.024;8.246;2022-11-28T00:40:39;31.02;;;17.40;;
22603;SDS011;11469;49.024;8.246;2022-11-28T00:43:04;31.55;;;17.67;;
22603;SDS011;11469;49.024;8.246;2022-11-28T00:45:30;33.78;;;18.75;;
22603;SDS011;11469;49.024;8.246;2022-11-28T00:47:55;32.55;;;17.98;;
22603;SDS011;11469;49.024;8.246;2022-11-28T00:50:21;36.97;;;20.10;;
22603;SDS011;11469;49.024;8.246;2022-11-28T00:52:46;42.92;;;18.02;;
22603;SDS011;11469;49.024;8.246;2022-11-28T00:55:11;38.65;;;19.48;;
22603;SDS011;11469;49.024;8.246;2022-11-28T00:57:37;32.00;;;17.15;;
22603;SDS011;11469;49.024;8.246;2022-11-28T01:00:03;34.15;;;18.15;;
22603;SDS011;11469;49.024;8.246;2022-11-28T01:02:29;32.53;;;17.52;;
22603;SDS011;11469;49.024;8.246;2022-11-28T01:04:55;34.08;;;16.88;;
22603;SDS011;11469;49.024;8.246;2022-11-28T01:07:20;32.08;;;17.67;;
22603;SDS011;11469;49.024;8.246;2022-11-28T01:09:45;31.45;;;17.98;;
22603;SDS011;11469;49.024;8.246;2022-11-28T01:12:11;29.58;;;16.85;;
22603;SDS011;11469;49.024;8.246;2022-11-28T01:14:36;36.10;;;17.70;;
22603;SDS011;11469;49.024;8.246;2022-11-28T01:17:01;31.77;;;17.70;;
22603;SDS011;11469;49.024;8.246;2022-11-28T01:19:27;28.63;;;16.02;;
22603;SDS011;11469;49.024;8.246;2022-11-28T01:21:52;32.72;;;18.20;;
22603;SDS011;11469;49.024;8.246;2022-11-28T01:24:18;31.50;;;17.05;;
22603;SDS011;11469;49.024;8.246;2022-11-28T01:26:43;32.13;;;17.73;;
22603;SDS011;11469;49.024;8.246;2022-11-28T01:29:09;32.97;;;16.80;;
22603;SDS011;11469;49.024;8.246;2022-11-28T01:31:35;31.95;;;16.48;;
22603;SDS011;11469;49.024;8.246;2022-11-28T01:34:00;27.67;;;16.20;;
22603;SDS011;11469;49.024;8.246;2022-11-28T01:36:26;31.55;;;18.05;;
22603;SDS011;11469;49.024;8.246;2022-11-28T01:38:52;31.38;;;17.52;;
22603;SDS011;11469;49.024;8.246;2022-11-28T01:41:19;34.33;;;19.90;;
22603;SDS011;11469;49.024;8.246;2022-11-28T01:44:01;29.40;;;17.13;;
22603;SDS011;11469;49.024;8.246;2022-11-28T01:46:27;32.63;;;18.65;;
22603;SDS011;11469;49.024;8.246;2022-11-28T01:48:53;32.15;;;18.02;;
22603;SDS011;11469;49.024;8.246;2022-11-28T01:51:23;27.02;;;16.42;;
22603;SDS011;11469;49.024;8.246;2022-11-28T01:53:49;33.85;;;17.73;;
22603;SDS011;11469;49.024;8.246;2022-11-28T01:56:17;36.70;;;21.10;;
22603;SDS011;11469;49.024;8.246;2022-11-28T01:58:46;37.78;;;20.70;;
22603;SDS011;11469;49.024;8.246;2022-11-28T02:01:16;33.13;;;20.40;;
22603;SDS011;11469;49.024;8.246;2022-11-28T02:03:44;37.65;;;21.40;;
22603;SDS011;11469;49.024;8.246;2022-11-28T02:06:11;32.30;;;18.77;;
22603;SDS011;11469;49.024;8.246;2022-11-28T02:08:38;35.10;;;17.70;;
22603;SDS011;11469;49.024;8.246;2022-11-28T02:11:16;27.70;;;16.20;;
22603;SDS011;11469;49.024;8.246;2022-11-28T02:14:01;26.60;;;15.23;;
22603;SDS011;11469;49.024;8.246;2022-11-28T02:16:56;27.58;;;15.25;;
22603;SDS011;11469;49.024;8.246;2022-11-28T02:33:45;29.30;;;16.60;;
22603;SDS011;11469;49.024;8.246;2022-11-28T02:36:34;29.90;;;16.10;;
22603;SDS011;11469;49.024;8.246;2022-11-28T02:49:07;37.55;;;20.10;;
22603;SDS011;11469;49.024;8.246;2022-11-28T02:51:54;32.40;;;17.52;;
22603;SDS011;11469;49.024;8.246;2022-11-28T02:54:24;32.20;;;18.33;;
22603;SDS011;11469;49.024;8.246;2022-11-28T02:56:52;31.83;;;16.98;;
22603;SDS011;11469;49.024;8.246;2022-11-28T02:59:28;29.33;;;16.23;;
22603;SDS011;11469;49.024;8.246;2022-11-28T03:01:55;31.73;;;17.40;;
22603;SDS011;11469;49.024;8.246;2022-11-28T03:15:10;31.08;;;16.33;;
22603;SDS011;11469;49.024;8.246;2022-11-28T03:20:44;27.50;;;15.48;;
22603;SDS011;11469;49.024;8.246;2022-11-28T03:26:12;35.03;;;16.77;;
22603;SDS011;11469;49.024;8.246;2022-11-28T03:29:08;32.15;;;15.55;;
22603;SDS011;11469;49.024;8.246;2022-11-28T03:31:41;32.17;;;15.65;;
22603;SDS011;11469;49.024;8.246;2022-11-28T03:34:13;25.88;;;14.95;;
22603;SDS011;11469;49.024;8.246;2022-11-28T03:36:46;26.60;;;15.07;;
22603;SDS011;11469;49.024;8.246;2022-11-28T03:39:23;29.33;;;15.98;;
22603;SDS011;11469;49.024;8.246;2022-11-28T03:41:58;27.65;;;15.63;;
22603;SDS011;11469;49.024;8.246;2022-11-28T03:44:34;30.73;;;15.90;;
22603;SDS011;11469;49.024;8.246;2022-11-28T03:47:11;26.63;;;14.82;;
22603;SDS011;11469;49.024;8.246;2022-11-28T03:49:38;27.63;;;15.82;;
22603;SDS011;11469;49.024;8.246;2022-11-28T03:52:07;29.13;;;15.30;;
22603;SDS011;11469;49.024;8.246;2022-11-28T03:54:54;25.83;;;15.20;;
22603;SDS011;11469;49.024;8.246;2022-11-28T03:57:33;29.42;;;15.20;;
22603;SDS011;11469;49.024;8.246;2022-11-28T04:00:06;28.95;;;16.10;;
22603;SDS011;11469;49.024;8.246;2022-11-28T04:02:36;33.10;;;17.13;;
22603;SDS011;11469;49.024;8.246;2022-11-28T04:05:06;31.15;;;16.50;;
22603;SDS011;11469;49.024;8.246;2022-11-28T04:07:45;32.50;;;17.42;;
22603;SDS011;11469;49.024;8.246;2022-11-28T04:10:17;30.98;;;15.90;;
22603;SDS011;11469;49.024;8.246;2022-11-28T04:13:06;27.33;;;16.60;;
22603;SDS011;11469;49.024;8.246;2022-11-28T04:18:29;28.90;;;16.83;;
22603;SDS011;11469;49.024;8.246;2022-11-28T04:23:24;29.15;;;16.13;;
22603;SDS011;11469;49.024;8.246;2022-11-28T04:25:53;28.98;;;14.57;;
22603;SDS011;11469;49.024;8.246;2022-11-28T04:28:31;32.40;;;16.45;;
22603;SDS011;11469;49.024;8.246;2022-11-28T04:31:00;27.52;;;14.30;;
22603;SDS011;11469;49.024;8.246;2022-11-28T04:33:28;32.90;;;14.85;;
22603;SDS011;11469;49.024;8.246;2022-11-28T04:35:57;26.83;;;15.07;;
22603;SDS011;11469;49.024;8.246;2022-11-28T04:38:25;28.17;;;15.02;;
22603;SDS011;11469;49.024;8.246;2022-11-28T04:40:55;27.55;;;15.27;;
22603;SDS011;11469;49.024;8.246;2022-11-28T04:43:28;27.45;;;14.55;;
22603;SDS011;11469;49.024;8.246;2022-11-28T04:46:44;30.70;;;15.63;;
22603;SDS011;11469;49.024;8.246;2022-11-28T04:48:50;27.05;;;15.13;;
22603;SDS011;11469;49.024;8.246;2022-11-28T04:51:21;32.65;;;16.02;;
22603;SDS011;11469;49.024;8.246;2022-11-28T04:56:20;29.02;;;15.25;;
22603;SDS011;11469;49.024;8.246;2022-11-28T04:58:51;29.65;;;15.43;;
22603;SDS011;11469;49.024;8.246;2022-11-28T05:01:18;29.77;;;16.00;;
22603;SDS011;11469;49.024;8.246;2022-11-28T05:03:49;31.85;;;15.48;;
22603;SDS011;11469;49.024;8.246;2022-11-28T05:06:28;31.42;;;15.98;;
22603;SDS011;11469;49.024;8.246;2022-11-28T05:08:55;24.63;;;13.63;;
22603;SDS011;11469;49.024;8.246;2022-11-28T05:11:21;29.15;;;15.85;;
22603;SDS011;11469;49.024;8.246;2022-11-28T05:13:47;28.48;;;14.85;;
22603;SDS011;11469;49.024;8.246;2022-11-28T05:16:13;29.90;;;15.95;;
22603;SDS011;11469;49.024;8.246;2022-11-28T05:18:39;26.17;;;14.63;;
22603;SDS011;11469;49.024;8.246;2022-11-28T05:21:04;27.35;;;14.85;;
22603;SDS011;11469;49.024;8.246;2022-11-28T05:23:40;29.20;;;15.07;;
22603;SDS011;11469;49.024;8.246;2022-11-28T05:26:08;28.20;;;15.15;;
22603;SDS011;11469;49.024;8.246;2022-11-28T05:28:35;28.85;;;16.45;;
22603;SDS011;11469;49.024;8.246;2022-11-28T05:31:01;26.85;;;15.98;;
22603;SDS011;11469;49.024;8.246;2022-11-28T05:33:28;32.35;;;16.75;;
22603;SDS011;11469;49.024;8.246;2022-11-28T05:35:54;35.95;;;17.58;;
22603;SDS011;11469;49.024;8.246;2022-11-28T05:38:21;41.15;;;21.50;;
22603;SDS011;11469;49.024;8.246;2022-11-28T05:40:47;39.65;;;18.90;;
22603;SDS011;11469;49.024;8.246;2022-11-28T05:43:12;35.25;;;16.67;;
22603;SDS011;11469;49.024;8.246;2022-11-28T05:45:41;32.33;;;16.10;;
22603;SDS011;11469;49.024;8.246;2022-11-28T05:48:07;31.50;;;16.25;;
22603;SDS011;11469;49.024;8.246;2022-11-28T05:50:33;33.92;;;16.27;;
22603;SDS011;11469;49.024;8.246;2022-11-28T05:52:58;50.08;;;19.42;;
22603;SDS011;11469;49.024;8.246;2022-11-28T05:55:23;56.55;;;20.70;;
22603;SDS011;11469;49.024;8.246;2022-11-28T05:57:49;61.67;;;24.42;;
22603;SDS011;11469;49.024;8.246;2022-11-28T06:00:14;66.43;;;23.60;;
22603;SDS011;11469;49.024;8.246;2022-11-28T06:02:40;78.68;;;22.60;;
22603;SDS011;11469;49.024;8.246;2022-11-28T06:05:06;47.58;;;20.77;;
22603;SDS011;11469;49.024;8.246;2022-11-28T06:07:31;56.35;;;21.83;;
22603;SDS011;11469;49.024;8.246;2022-11-28T06:09:57;77.20;;;26.45;;
22603;SDS011;11469;49.024;8.246;2022-11-28T06:12:22;45.47;;;25.10;;
22603;SDS011;11469;49.024;8.246;2022-11-28T06:14:47;50.83;;;24.67;;
22603;SDS011;11469;49.024;8.246;2022-11-28T06:17:13;83.68;;;25.30;;
22603;SDS011;11469;49.024;8.246;2022-11-28T06:19:38;162.95;;;28.50;;
22603;SDS011;11469;49.024;8.246;2022-11-28T06:22:03;49.90;;;23.75;;
22603;SDS011;11469;49.024;8.246;2022-11-28T06:24:29;98.75;;;25.92;;
22603;SDS011;11469;49.024;8.246;2022-11-28T06:26:54;44.17;;;24.17;;
22603;SDS011;11469;49.024;8.246;2022-11-28T06:29:20;286.08;;;32.25;;
22603;SDS011;11469;49.024;8.246;2022-11-28T06:31:46;121.82;;;29.58;;
22603;SDS011;11469;49.024;8.246;2022-11-28T06:34:11;66.35;;;23.85;;
22603;SDS011;11469;49.024;8.246;2022-11-28T06:36:37;41.28;;;21.55;;
22603;SDS011;11469;49.024;8.246;2022-11-28T06:39:02;58.25;;;25.77;;
22603;SDS011;11469;49.024;8.246;2022-11-28T06:41:28;48.40;;;23.13;;
22603;SDS011;11469;49.024;8.246;2022-11-28T06:43:54;103.22;;;25.08;;
22603;SDS011;11469;49.024;8.246;2022-11-28T06:46:21;66.15;;;26.67;;
22603;SDS011;11469;49.024;8.246;2022-11-28T06:48:47;66.32;;;26.55;;
22603;SDS011;11469;49.024;8.246;2022-11-28T06:51:14;46.22;;;22.02;;
22603;SDS011;11469;49.024;8.246;2022-11-28T06:53:40;42.95;;;20.13;;
22603;SDS011;11469;49.024;8.246;2022-11-28T06:56:07;62.85;;;21.75;;
22603;SDS011;11469;49.024;8.246;2022-11-28T06:58:35;45.22;;;20.05;;
22603;SDS011;11469;49.024;8.246;2022-11-28T07:03:37;49.10;;;22.38;;
22603;SDS011;11469;49.024;8.246;2022-11-28T07:06:04;52.20;;;23.55;;
22603;SDS011;11469;49.024;8.246;2022-11-28T07:08:30;40.42;;;21.75;;
22603;SDS011;11469;49.024;8.246;2022-11-28T07:10:56;40.92;;;21.10;;
22603;SDS011;11469;49.024;8.246;2022-11-28T07:13:22;43.45;;;22.17;;
22603;SDS011;11469;49.024;8.246;2022-11-28T07:15:51;39.08;;;21.25;;
22603;SDS011;11469;49.024;8.246;2022-11-28T07:18:17;42.97;;;21.17;;
22603;SDS011;11469;49.024;8.246;2022-11-28T07:20:42;29.33;;;17.02;;
22603;SDS011;11469;49.024;8.246;2022-11-28T07:23:07;37.20;;;19.65;;
22603;SDS011;11469;49.024;8.246;2022-11-28T07:25:33;33.33;;;19.58;;
22603;SDS011;11469;49.024;8.246;2022-11-28T07:27:59;37.45;;;21.15;;
22603;SDS011;11469;49.024;8.246;2022-11-28T07:30:24;40.88;;;21.35;;
22603;SDS011;11469;49.024;8.246;2022-11-28T07:32:50;40.30;;;21.90;;
22603;SDS011;11469;49.024;8.246;2022-11-28T07:35:15;34.33;;;18.52;;
22603;SDS011;11469;49.024;8.246;2022-11-28T07:37:41;88.47;;;22.40;;
22603;SDS011;11469;49.024;8.246;2022-11-28T07:40:06;42.65;;;19.77;;
22603;SDS011;11469;49.024;8.246;2022-11-28T07:42:32;43.53;;;18.63;;
22603;SDS011;11469;49.024;8.246;2022-11-28T07:44:57;41.53;;;21.27;;
22603;SDS011;11469;49.024;8.246;2022-11-28T07:47:23;38.65;;;18.58;;
22603;SDS011;11469;49.024;8.246;2022-11-28T07:49:48;34.97;;;17.63;;
22603;SDS011;11469;49.024;8.246;2022-11-28T07:52:14;36.17;;;18.65;;
22603;SDS011;11469;49.024;8.246;2022-11-28T07:54:39;42.50;;;22.75;;
22603;SDS011;11469;49.024;8.246;2022-11-28T07:57:05;47.97;;;23.33;;
22603;SDS011;11469;49.024;8.246;2022-11-28T07:59:30;34.40;;;19.15;;
22603;SDS011;11469;49.024;8.246;2022-11-28T08:01:56;33.78;;;17.88;;
22603;SDS011;11469;49.024;8.246;2022-11-28T08:04:21;33.13;;;17.13;;
22603;SDS011;11469;49.024;8.246;2022-11-28T08:06:47;37.33;;;18.23;;
22603;SDS011;11469;49.024;8.246;2022-11-28T08:09:12;34.20;;;18.40;;
22603;SDS011;11469;49.024;8.246;2022-11-28T08:11:38;31.85;;;17.73;;
22603;SDS011;11469;49.024;8.246;2022-11-28T08:14:04;32.17;;;18.25;;
22603;SDS011;11469;49.024;8.246;2022-11-28T08:16:30;34.13;;;18.98;;
22603;SDS011;11469;49.024;8.246;2022-11-28T08:18:56;35.83;;;19.23;;
22603;SDS011;11469;49.024;8.246;2022-11-28T08:21:25;33.80;;;19.98;;
22603;SDS011;11469;49.024;8.246;2022-11-28T08:23:53;35.42;;;19.73;;
22603;SDS011;11469;49.024;8.246;2022-11-28T08:26:20;35.00;;;18.48;;
22603;SDS011;11469;49.024;8.246;2022-11-28T08:28:47;35.47;;;18.08;;
22603;SDS011;11469;49.024;8.246;2022-11-28T08:31:16;32.28;;;15.48;;
22603;SDS011;11469;49.024;8.246;2022-11-28T08:33:44;31.65;;;16.77;;
22603;SDS011;11469;49.024;8.246;2022-11-28T08:36:11;35.78;;;19.25;;
22603;SDS011;11469;49.024;8.246;2022-11-28T08:38:39;65.70;;;32.53;;
22603;SDS011;11469;49.024;8.246;2022-11-28T08:41:08;56.13;;;30.33;;
22603;SDS011;11469;49.024;8.246;2022-11-28T08:43:35;37.42;;;21.67;;
22603;SDS011;11469;49.024;8.246;2022-11-28T08:46:05;36.92;;;20.73;;
22603;SDS011;11469;49.024;8.246;2022-11-28T08:48:33;35.13;;;19.67;;
22603;SDS011;11469;49.024;8.246;2022-11-28T08:50:59;31.42;;;18.85;;
22603;SDS011;11469;49.024;8.246;2022-11-28T08:53:25;31.50;;;18.52;;
22603;SDS011;11469;49.024;8.246;2022-11-28T08:55:51;29.13;;;17.15;;
22603;SDS011;11469;49.024;8.246;2022-11-28T08:58:16;50.15;;;27.00;;
22603;SDS011;11469;49.024;8.246;2022-11-28T09:00:42;38.90;;;19.88;;
22603;SDS011;11469;49.024;8.246;2022-11-28T09:03:10;38.38;;;23.55;;
22603;SDS011;11469;49.024;8.246;2022-11-28T09:05:39;30.55;;;18.48;;
22603;SDS011;11469;49.024;8.246;2022-11-28T09:08:06;36.58;;;20.98;;
22603;SDS011;11469;49.024;8.246;2022-11-28T09:10:34;38.45;;;19.05;;
22603;SDS011;11469;49.024;8.246;2022-11-28T09:13:02;32.05;;;16.35;;
22603;SDS011;11469;49.024;8.246;2022-11-28T09:15:28;34.33;;;20.00;;
22603;SDS011;11469;49.024;8.246;2022-11-28T09:17:53;29.08;;;15.93;;
22603;SDS011;11469;49.024;8.246;2022-11-28T09:20:18;31.50;;;17.02;;
22603;SDS011;11469;49.024;8.246;2022-11-28T09:22:45;25.83;;;16.55;;
22603;SDS011;11469;49.024;8.246;2022-11-28T09:25:11;29.13;;;16.48;;
22603;SDS011;11469;49.024;8.246;2022-11-28T09:27:37;30.80;;;17.67;;
22603;SDS011;11469;49.024;8.246;2022-11-28T09:30:03;29.30;;;16.33;;
22603;SDS011;11469;49.024;8.246;2022-11-28T09:32:30;29.08;;;16.23;;
22603;SDS011;11469;49.024;8.246;2022-11-28T09:34:55;30.23;;;16.58;;
22603;SDS011;11469;49.024;8.246;2022-11-28T09:37:21;28.08;;;17.15;;
22603;SDS011;11469;49.024;8.246;2022-11-28T09:39:46;29.60;;;17.23;;
22603;SDS011;11469;49.024;8.246;2022-11-28T09:42:25;38.25;;;18.85;;
22603;SDS011;11469;49.024;8.246;2022-11-28T09:44:57;33.97;;;19.48;;
22603;SDS011;11469;49.024;8.246;2022-11-28T09:47:28;36.30;;;19.27;;
22603;SDS011;11469;49.024;8.246;2022-11-28T09:50:03;40.80;;;21.23;;
22603;SDS011;11469;49.024;8.246;2022-11-28T09:52:47;31.35;;;18.88;;
22603;SDS011;11469;49.024;8.246;2022-11-28T09:55:27;32.88;;;19.35;;
22603;SDS011;11469;49.024;8.246;2022-11-28T09:57:53;28.65;;;18.08;;
22603;SDS011;11469;49.024;8.246;2022-11-28T10:00:20;32.33;;;19.05;;
22603;SDS011;11469;49.024;8.246;2022-11-28T10:22:15;37.22;;;20.60;;
22603;SDS011;11469;49.024;8.246;2022-11-28T10:24:46;35.25;;;21.30;;
22603;SDS011;11469;49.024;8.246;2022-11-28T10:27:14;33.63;;;20.60;;
22603;SDS011;11469;49.024;8.246;2022-11-28T10:32:29;37.25;;;21.70;;
22603;SDS011;11469;49.024;8.246;2022-11-28T10:35:22;33.75;;;19.98;;
22603;SDS011;11469;49.024;8.246;2022-11-28T10:37:46;34.00;;;19.70;;
22603;SDS011;11469;49.024;8.246;2022-11-28T10:40:24;44.80;;;24.17;;
22603;SDS011;11469;49.024;8.246;2022-11-28T10:51:52;31.35;;;19.40;;
22603;SDS011;11469;49.024;8.246;2022-11-28T10:57:17;40.50;;;22.17;;
22603;SDS011;11469;49.024;8.246;2022-11-28T11:02:48;36.00;;;19.55;;
22603;SDS011;11469;49.024;8.246;2022-11-28T11:05:18;42.80;;;21.35;;
22603;SDS011;11469;49.024;8.246;2022-11-28T11:10:35;32.97;;;17.17;;
22603;SDS011;11469;49.024;8.246;2022-11-28T11:13:12;29.00;;;16.42;;
22603;SDS011;11469;49.024;8.246;2022-11-28T11:15:40;27.30;;;15.63;;
22603;SDS011;11469;49.024;8.246;2022-11-28T11:18:20;27.95;;;16.73;;
22603;SDS011;11469;49.024;8.246;2022-11-28T11:20:47;30.35;;;15.93;;
22603;SDS011;11469;49.024;8.246;2022-11-28T11:23:17;32.10;;;15.52;;
22603;SDS011;11469;49.024;8.246;2022-11-28T11:25:50;27.40;;;16.27;;
22603;SDS011;11469;49.024;8.246;2022-11-28T11:31:03;27.17;;;15.77;;
22603;SDS011;11469;49.024;8.246;2022-11-28T11:33:32;32.65;;;17.50;;
22603;SDS011;11469;49.024;8.246;2022-11-28T11:36:01;28.75;;;17.90;;
22603;SDS011;11469;49.024;8.246;2022-11-28T11:38:29;31.20;;;17.55;;
22603;SDS011;11469;49.024;8.246;2022-11-28T11:40:57;25.95;;;15.38;;
22603;SDS011;11469;49.024;8.246;2022-11-28T11:43:44;30.55;;;16.17;;
22603;SDS011;11469;49.024;8.246;2022-11-28T11:48:40;29.60;;;16.00;;
22603;SDS011;11469;49.024;8.246;2022-11-28T11:51:28;27.35;;;16.23;;
22603;SDS011;11469;49.024;8.246;2022-11-28T11:54:03;25.10;;;14.88;;
22603;SDS011;11469;49.024;8.246;2022-11-28T11:56:32;27.67;;;15.93;;
22603;SDS011;11469;49.024;8.246;2022-11-28T11:59:03;24.42;;;14.98;;
22603;SDS011;11469;49.024;8.246;2022-11-28T12:01:36;31.15;;;16.05;;
22603;SDS011;11469;49.024;8.246;2022-11-28T12:04:04;27.48;;;14.88;;
22603;SDS011;11469;49.024;8.246;2022-11-28T12:06:36;28.20;;;15.13;;
22603;SDS011;11469;49.024;8.246;2022-11-28T12:09:23;22.75;;;13.93;;
22603;SDS011;11469;49.024;8.246;2022-11-28T12:11:58;28.17;;;13.63;;
22603;SDS011;11469;49.024;8.246;2022-11-28T12:14:30;29.08;;;14.82;;
22603;SDS011;11469;49.024;8.246;2022-11-28T12:35:41;24.48;;;13.77;;
22603;SDS011;11469;49.024;8.246;2022-11-28T12:38:59;25.63;;;12.93;;
22603;SDS011;11469;49.024;8.246;2022-11-28T12:58:37;24.38;;;12.45;;
22603;SDS011;11469;49.024;8.246;2022-11-28T13:09:17;39.42;;;18.30;;
22603;SDS011;11469;49.024;8.246;2022-11-28T13:18:10;24.60;;;14.25;;
22603;SDS011;11469;49.024;8.246;2022-11-28T13:20:22;22.70;;;12.68;;
22603;SDS011;11469;49.024;8.246;2022-11-28T13:25:59;24.48;;;14.25;;
22603;SDS011;11469;49.024;8.246;2022-11-28T13:30:56;30.65;;;15.35;;
22603;SDS011;11469;49.024;8.246;2022-11-28T13:36:25;23.75;;;13.70;;
22603;SDS011;11469;49.024;8.246;2022-11-28T13:46:40;34.60;;;20.92;;
22603;SDS011;11469;49.024;8.246;2022-11-28T13:49:25;40.45;;;23.05;;
22603;SDS011;11469;49.024;8.246;2022-11-28T13:54:53;27.10;;;16.60;;
22603;SDS011;11469;49.024;8.246;2022-11-28T13:57:24;29.30;;;17.77;;
22603;SDS011;11469;49.024;8.246;2022-11-28T13:59:54;27.60;;;15.73;;
22603;SDS011;11469;49.024;8.246;2022-11-28T14:05:01;34.90;;;17.90;;
22603;SDS011;11469;49.024;8.246;2022-11-28T14:07:28;30.10;;;14.82;;
22603;SDS011;11469;49.024;8.246;2022-11-28T14:10:38;23.10;;;14.23;;
22603;SDS011;11469;49.024;8.246;2022-11-28T14:13:06;25.85;;;15.38;;
22603;SDS011;11469;49.024;8.246;2022-11-28T14:15:41;27.30;;;16.13;;
22603;SDS011;11469;49.024;8.246;2022-11-28T14:26:39;24.70;;;15.83;;
22603;SDS011;11469;49.024;8.246;2022-11-28T14:29:16;26.58;;;15.13;;
22603;SDS011;11469;49.024;8.246;2022-11-28T14:31:51;27.95;;;15.05;;
22603;SDS011;11469;49.024;8.246;2022-11-28T14:39:48;33.70;;;15.77;;
22603;SDS011;11469;49.024;8.246;2022-11-28T14:44:44;30.80;;;18.15;;
22603;SDS011;11469;49.024;8.246;2022-11-28T14:47:37;29.55;;;17.10;;
22603;SDS011;11469;49.024;8.246;2022-11-28T14:52:33;31.67;;;15.85;;
22603;SDS011;11469;49.024;8.246;2022-11-28T14:57:34;33.47;;;18.00;;
22603;SDS011;11469;49.024;8.246;2022-11-28T15:00:04;30.65;;;17.40;;
22603;SDS011;11469;49.024;8.246;2022-11-28T15:02:41;30.45;;;16.55;;
22603;SDS011;11469;49.024;8.246;2022-11-28T15:08:09;30.45;;;17.13;;
22603;SDS011;11469;49.024;8.246;2022-11-28T15:16:14;37.47;;;17.60;;
22603;SDS011;11469;49.024;8.246;2022-11-28T15:18:52;38.83;;;21.38;;
22603;SDS011;11469;49.024;8.246;2022-11-28T15:21:22;46.00;;;25.90;;
22603;SDS011;11469;49.024;8.246;2022-11-28T15:23:47;48.42;;;29.20;;
22603;SDS011;11469;49.024;8.246;2022-11-28T15:31:48;31.02;;;19.08;;
22603;SDS011;11469;49.024;8.246;2022-11-28T15:37:02;32.33;;;18.80;;
22603;SDS011;11469;49.024;8.246;2022-11-28T15:39:34;34.90;;;20.60;;
22603;SDS011;11469;49.024;8.246;2022-11-28T15:42:17;36.63;;;20.80;;
22603;SDS011;11469;49.024;8.246;2022-11-28T15:44:46;32.35;;;20.75;;
22603;SDS011;11469;49.024;8.246;2022-11-28T15:47:19;38.50;;;22.23;;
22603;SDS011;11469;49.024;8.246;2022-11-28T15:52:37;37.45;;;20.83;;
22603;SDS011;11469;49.024;8.246;2022-11-28T15:55:12;39.08;;;22.33;;
22603;SDS011;11469;49.024;8.246;2022-11-28T15:57:40;32.53;;;19.98;;
22603;SDS011;11469;49.024;8.246;2022-11-28T16:00:08;44.25;;;19.90;;
22603;SDS011;11469;49.024;8.246;2022-11-28T16:02:37;31.98;;;18.60;;
22603;SDS011;11469;49.024;8.246;2022-11-28T16:05:08;30.30;;;18.63;;
22603;SDS011;11469;49.024;8.246;2022-11-28T16:07:41;33.47;;;18.30;;
22603;SDS011;11469;49.024;8.246;2022-11-28T16:10:27;39.53;;;20.80;;
22603;SDS011;11469;49.024;8.246;2022-11-28T16:13:01;33.58;;;19.73;;
22603;SDS011;11469;49.024;8.246;2022-11-28T16:15:33;30.77;;;19.20;;
22603;SDS011;11469;49.024;8.246;2022-11-28T16:18:00;34.88;;;19.83;;
22603;SDS011;11469;49.024;8.246;2022-11-28T16:20:26;31.15;;;19.35;;
22603;SDS011;11469;49.024;8.246;2022-11-28T16:22:57;38.28;;;23.02;;
22603;SDS011;11469;49.024;8.246;2022-11-28T16:25:26;35.53;;;19.38;;
22603;SDS011;11469;49.024;8.246;2022-11-28T16:27:52;33.45;;;18.73;;
22603;SDS011;11469;49.024;8.246;2022-11-28T16:30:24;34.92;;;19.92;;
22603;SDS011;11469;49.024;8.246;2022-11-28T16:32:56;37.10;;;21.05;;
22603;SDS011;11469;49.024;8.246;2022-11-28T16:35:33;27.48;;;16.83;;
22603;SDS011;11469;49.024;8.246;2022-11-28T16:38:13;32.78;;;18.77;;
22603;SDS011;11469;49.024;8.246;2022-11-28T16:43:15;34.72;;;18.42;;
22603;SDS011;11469;49.024;8.246;2022-11-28T16:45:56;30.17;;;18.88;;
22603;SDS011;11469;49.024;8.246;2022-11-28T16:48:23;44.88;;;26.48;;
22603;SDS011;11469;49.024;8.246;2022-11-28T16:53:44;37.35;;;23.60;;
22603;SDS011;11469;49.024;8.246;2022-11-28T16:59:02;33.63;;;19.77;;
22603;SDS011;11469;49.024;8.246;2022-11-28T17:01:35;45.17;;;25.83;;
22603;SDS011;11469;49.024;8.246;2022-11-28T17:04:01;46.55;;;26.45;;
22603;SDS011;11469;49.024;8.246;2022-11-28T17:06:31;37.90;;;23.20;;
22603;SDS011;11469;49.024;8.246;2022-11-28T17:09:02;43.80;;;26.10;;
22603;SDS011;11469;49.024;8.246;2022-11-28T17:11:31;44.35;;;25.88;;
22603;SDS011;11469;49.024;8.246;2022-11-28T17:13:59;63.35;;;35.17;;
22603;SDS011;11469;49.024;8.246;2022-11-28T17:16:25;63.72;;;33.13;;
22603;SDS011;11469;49.024;8.246;2022-11-28T17:18:51;47.53;;;29.60;;
22603;SDS011;11469;49.024;8.246;2022-11-28T17:21:21;44.90;;;28.20;;
22603;SDS011;11469;49.024;8.246;2022-11-28T17:23:56;62.70;;;33.67;;
22603;SDS011;11469;49.024;8.246;2022-11-28T17:26:22;46.00;;;26.58;;
22603;SDS011;11469;49.024;8.246;2022-11-28T17:28:47;47.22;;;23.52;;
22603;SDS011;11469;49.024;8.246;2022-11-28T17:31:13;44.97;;;25.58;;
22603;SDS011;11469;49.024;8.246;2022-11-28T17:33:38;46.53;;;26.80;;
22603;SDS011;11469;49.024;8.246;2022-11-28T17:36:03;37.03;;;21.40;;
22603;SDS011;11469;49.024;8.246;2022-11-28T17:38:29;33.70;;;18.27;;
22603;SDS011;11469;49.024;8.246;2022-11-28T17:40:57;29.27;;;18.10;;
22603;SDS011;11469;49.024;8.246;2022-11-28T17:43:24;35.95;;;22.73;;
22603;SDS011;11469;49.024;8.246;2022-11-28T17:45:49;34.88;;;21.00;;
22603;SDS011;11469;49.024;8.246;2022-11-28T17:48:15;63.97;;;35.85;;
22603;SDS011;11469;49.024;8.246;2022-11-28T17:50:42;34.22;;;19.00;;
22603;SDS011;11469;49.024;8.246;2022-11-28T17:53:09;32.88;;;17.98;;
22603;SDS011;11469;49.024;8.246;2022-11-28T17:55:39;43.75;;;22.65;;
22603;SDS011;11469;49.024;8.246;2022-11-28T17:58:17;43.25;;;23.67;;
22603;SDS011;11469;49.024;8.246;2022-11-28T18:00:44;35.30;;;19.77;;
22603;SDS011;11469;49.024;8.246;2022-11-28T18:03:11;33.65;;;19.67;;
22603;SDS011;11469;49.024;8.246;2022-11-28T18:05:44;41.38;;;24.60;;
22603;SDS011;11469;49.024;8.246;2022-11-28T18:08:11;49.90;;;29.58;;
22603;SDS011;11469;49.024;8.246;2022-11-28T18:10:38;56.33;;;34.45;;
22603;SDS011;11469;49.024;8.246;2022-11-28T18:13:04;47.70;;;28.38;;